Neenah, WI (54956)

7:31 AM CDT on July 01, 2015 (GMT -0500)
Near Heckrodt Wetland Reserve | | Change Station
CLOSE
Current Station
Personal Weather Station
Location: Menasha, WI
Elevation: 755 ft
Nearby Weather Stations

Elev 755 ft 44.21 °N, 88.43 °W | Updated 20 seconds ago

Mostly Cloudy
Mostly Cloudy
52.8 °F
Feels Like 52.8 °F
N
1.0
Wind Variable Wind from NNE
Gusts 3.0 mph

Today
High -- | Low -- °F
--% Chance of Precip.
Yesterday
High -- | Low -- °F
Precip. -- in
5:14 AM 8:41 PM
Full, 100% visible
Pressure 29.98 in
Visibility 10.0 miles
Clouds Scattered Clouds 1800 ft
Dew Point 46 °F
Humidity 78%
Rainfall 0.00 in
Snow Depth Not available.
UV 1 out of 12
Pollen 5.30 out of 12
Air Quality Not available.
Flu Activity Not available.
SPECI KATW 011225Z 01009KT 10SM SCT018 10/06 A2998

More Conditions Fewer Conditions

Pressure 29.98 in
Visibility 10.0 miles
Clouds Scattered Clouds 1800 ft
Dew Point 46 °F
Humidity 78%
Rainfall 0.00 in
Snow Depth Not available.
UV 1 out of 12
Pollen 5.30 out of 12
Air Quality Not available.
Flu Activity Not available.
SPECI KATW 011225Z 01009KT 10SM SCT018 10/06 A2998

More Conditions Fewer Conditions

10-Day Weather Forecast

×

Almanac

Astronomy

Jul. 01, 2015 Rise Set
Actual Time
Civil Twilight
Nautical Twilight
Astronomical Twilight
Moon
Length of Visible Light
Length of Day
Tomorrow will be .
, % of the Moon is Illuminated

Today's Extremes

State Highs State Lows

Community

WunderPhotos

Upload Photos

1,834,184 photos uploaded!

WunderBlogs® & News

Nearby

Air Quality

  Air Quality AQ Index Pollutant
Not available.

Snow Depth

Station Depth Elevation

Earthquake Activity

City Distance Mag. Time & Date
Minimum magnitude displayed is 2.5.

Coastal Water Temperatures

Place Temperature

Stations

Nearby Weather Stations

Station Location Temp. Windchill Dew Point Humidity Wind Precip. Elev Updated Type